Time;durP1;ratioP1;P1;durP2;ratioP2;P2;SDS_P1;SDS_P2;PMS_P1;PMS_P2;Temp;Humidity;BMP_temperature;BMP_pressure;BME280_temperature;BME280_humidity;BME280_pressure;Samples;Min_cycle;Max_cycle;Signal;HPM_P1;HPM_P2
2022/05/31 00:02:13;;;;;;;;;8.00;6.00;;;;;;;;5076914;28;29359;-84
2022/05/31 00:04:39;;;;;;;;;5.75;5.00;;;;;;;;5093678;27;30545;-85
2022/05/31 00:07:05;;;;;;;;;6.50;5.00;;;;;;;;5094973;28;29421;-84
2022/05/31 00:09:31;;;;;;;;;7.00;7.00;;;;;;;;5094540;27;29814;-84
2022/05/31 00:11:57;;;;;;;;;10.25;7.00;;;;;;;;5076799;28;29432;-84
2022/05/31 00:14:23;;;;;;;;;4.00;4.00;;;;;;;;5094773;28;29539;-84
2022/05/31 00:16:48;;;;;;;;;3.25;3.00;;;;;;;;5076424;28;29430;-84
2022/05/31 00:19:15;;;;;;;;;4.75;4.00;;;;;;;;5094763;27;29516;-83
2022/05/31 00:21:49;;;;;;;;;5.75;5.75;;;;;;;;5076552;28;29333;-83
2022/05/31 00:24:16;;;;;;;;;4.00;4.00;;;;;;;;5094676;28;29549;-84
2022/05/31 00:26:41;;;;;;;;;4.25;4.25;;;;;;;;5076310;28;30086;-83
2022/05/31 00:29:08;;;;;;;;;3.75;2.50;;;;;;;;5076271;28;29494;-83
2022/05/31 00:31:34;;;;;;;;;4.50;4.25;;;;;;;;5068800;28;29305;-84
2022/05/31 00:34:00;;;;;;;;;3.00;3.00;;;;;;;;5088642;28;30410;-83
2022/05/31 00:36:25;;;;;;;;;5.00;5.00;;;;;;;;5076212;28;29569;-84
2022/05/31 00:38:51;;;;;;;;;4.75;4.75;;;;;;;;5076274;28;29778;-83
2022/05/31 00:41:23;;;;;;;;;2.75;2.75;;;;;;;;5076462;28;29390;-84
2022/05/31 00:43:49;;;;;;;;;4.75;4.50;;;;;;;;5094383;27;30316;-84
2022/05/31 00:46:15;;;;;;;;;4.00;4.00;;;;;;;;5094383;28;29619;-84
2022/05/31 00:48:55;;;;;;;;;4.75;4.00;;;;;;;;5075890;27;29490;-84
2022/05/31 00:51:22;;;;;;;;;4.25;3.75;;;;;;;;5094685;28;29415;-84
2022/05/31 00:53:56;;;;;;;;;4.75;4.75;;;;;;;;5069121;28;46924;-84
2022/05/31 00:56:25;;;;;;;;;3.75;3.75;;;;;;;;5085934;28;46738;-84
2022/05/31 00:58:57;;;;;;;;;3.25;3.00;;;;;;;;5089546;27;46998;-84
2022/05/31 01:01:23;;;;;;;;;5.00;4.75;;;;;;;;5097361;27;36606;-84
2022/05/31 01:03:49;;;;;;;;;3.00;3.00;;;;;;;;5078101;28;30680;-83
2022/05/31 01:06:14;;;;;;;;;3.75;3.00;;;;;;;;5077552;28;42899;-83
2022/05/31 01:08:45;;;;;;;;;4.00;4.00;;;;;;;;5092142;27;46805;-84
2022/05/31 01:11:13;;;;;;;;;2.00;2.00;;;;;;;;5097789;27;29299;-83
2022/05/31 01:13:38;;;;;;;;;3.50;3.50;;;;;;;;5097825;27;29291;-83
2022/05/31 01:16:08;;;;;;;;;5.00;4.00;;;;;;;;5076558;27;46871;-83
2022/05/31 01:18:34;;;;;;;;;3.75;3.75;;;;;;;;5093433;27;46991;-83
2022/05/31 01:21:02;;;;;;;;;4.25;4.25;;;;;;;;5063115;28;46952;-82
2022/05/31 01:23:30;;;;;;;;;4.00;4.00;;;;;;;;5064017;28;48247;-81
2022/05/31 01:26:05;;;;;;;;;5.00;4.00;;;;;;;;5082142;27;47304;-81
2022/05/31 01:28:34;;;;;;;;;3.75;3.75;;;;;;;;5062357;28;47146;-81
2022/05/31 01:31:02;;;;;;;;;3.25;3.25;;;;;;;;5079315;27;46877;-81
2022/05/31 01:33:33;;;;;;;;;5.00;4.25;;;;;;;;5085915;27;47027;-81
2022/05/31 01:36:06;;;;;;;;;5.00;2.25;;;;;;;;5083863;28;46991;-81
2022/05/31 01:38:35;;;;;;;;;4.25;4.00;;;;;;;;5080478;27;47131;-81
2022/05/31 01:41:13;;;;;;;;;3.75;3.75;;;;;;;;5062140;28;47032;-81
2022/05/31 01:43:42;;;;;;;;;3.00;3.00;;;;;;;;5082647;27;48767;-81
2022/05/31 01:46:10;;;;;;;;;4.00;4.00;;;;;;;;5050147;28;47310;-81
2022/05/31 01:48:37;;;;;;;;;3.50;3.50;;;;;;;;5079946;27;46955;-81
2022/05/31 01:51:03;;;;;;;;;8.00;5.00;;;;;;;;5075201;28;46860;-81
2022/05/31 01:53:29;;;;;;;;;4.25;4.25;;;;;;;;5096682;27;29575;-81
2022/05/31 01:55:55;;;;;;;;;6.00;5.00;;;;;;;;5078489;28;29861;-81
2022/05/31 01:58:24;;;;;;;;;6.50;6.50;;;;;;;;5096612;27;29580;-81
2022/05/31 02:00:49;;;;;;;;;5.50;5.50;;;;;;;;5078360;28;29525;-81
2022/05/31 02:03:16;;;;;;;;;4.00;3.50;;;;;;;;5095616;27;29314;-81
2022/05/31 02:05:50;;;;;;;;;5.00;4.00;;;;;;;;5096795;27;29384;-81
2022/05/31 02:08:16;;;;;;;;;5.00;5.00;;;;;;;;5077932;28;29363;-81
2022/05/31 02:10:42;;;;;;;;;4.50;4.50;;;;;;;;5096109;28;38273;-80
2022/05/31 02:13:07;;;;;;;;;3.25;3.25;;;;;;;;5093402;28;46193;-81
2022/05/31 02:15:33;;;;;;;;;7.00;5.75;;;;;;;;5096326;28;29358;-81
2022/05/31 02:17:58;;;;;;;;;5.25;5.25;;;;;;;;5096553;27;29478;-81
2022/05/31 02:20:24;;;;;;;;;3.00;3.00;;;;;;;;5096512;28;29557;-81
2022/05/31 02:22:49;;;;;;;;;4.25;4.25;;;;;;;;5094468;27;46768;-81
2022/05/31 02:25:14;;;;;;;;;3.00;3.00;;;;;;;;5092373;27;46770;-81
2022/05/31 02:27:39;;;;;;;;;4.75;4.75;;;;;;;;5095551;27;41158;-81
2022/05/31 02:30:06;;;;;;;;;6.00;4.00;;;;;;;;5095141;28;38176;-81
2022/05/31 02:32:32;;;;;;;;;6.00;4.25;;;;;;;;5064304;27;30907;-81
2022/05/31 02:34:57;;;;;;;;;5.00;4.00;;;;;;;;5077844;28;29796;-81
2022/05/31 02:37:23;;;;;;;;;5.25;5.00;;;;;;;;5094888;27;46423;-81
2022/05/31 02:39:48;;;;;;;;;5.00;5.00;;;;;;;;5076125;28;45250;-81
2022/05/31 02:42:14;;;;;;;;;3.50;3.25;;;;;;;;5077719;27;30445;-81
2022/05/31 02:44:40;;;;;;;;;4.25;4.00;;;;;;;;5094735;27;46354;-81
2022/05/31 02:47:06;;;;;;;;;5.75;5.00;;;;;;;;5077702;27;29307;-81
2022/05/31 02:49:31;;;;;;;;;4.50;4.50;;;;;;;;5077716;28;29499;-81
2022/05/31 02:51:58;;;;;;;;;5.00;5.00;;;;;;;;5095759;27;30278;-81
2022/05/31 02:54:23;;;;;;;;;6.00;5.75;;;;;;;;5077543;28;30126;-81
2022/05/31 02:56:49;;;;;;;;;7.00;5.00;;;;;;;;5095813;28;29293;-81
2022/05/31 02:59:14;;;;;;;;;5.00;5.00;;;;;;;;5095912;27;29401;-81
2022/05/31 03:01:40;;;;;;;;;5.00;5.00;;;;;;;;5077093;27;29503;-81
2022/05/31 03:04:06;;;;;;;;;7.50;6.25;;;;;;;;5094788;27;29547;-79
2022/05/31 03:06:32;;;;;;;;;4.00;4.00;;;;;;;;5095505;27;29867;-80
2022/05/31 03:08:58;;;;;;;;;3.75;3.50;;;;;;;;5095651;27;29491;-80
2022/05/31 03:11:30;;;;;;;;;6.50;6.00;;;;;;;;5077088;27;30894;-80
2022/05/31 03:13:59;;;;;;;;;6.00;5.25;;;;;;;;5095607;27;29442;-80
2022/05/31 03:16:25;;;;;;;;;6.75;5.25;;;;;;;;5095163;28;29501;-81
2022/05/31 03:18:56;;;;;;;;;5.00;5.00;;;;;;;;5076814;28;29399;-81
2022/05/31 03:21:24;;;;;;;;;8.25;7.75;;;;;;;;5073446;28;46985;-80
2022/05/31 03:23:53;;;;;;;;;2.75;2.75;;;;;;;;5087979;28;47010;-80
2022/05/31 03:26:20;;;;;;;;;4.50;4.50;;;;;;;;5063258;28;46805;-80
2022/05/31 03:28:46;;;;;;;;;7.00;6.00;;;;;;;;5093440;28;42410;-80
2022/05/31 03:31:11;;;;;;;;;4.25;4.00;;;;;;;;5084891;28;47012;-80
2022/05/31 03:33:37;;;;;;;;;6.00;4.75;;;;;;;;5094468;28;38792;-80
2022/05/31 03:36:02;;;;;;;;;5.50;4.25;;;;;;;;5085435;27;46884;-80
2022/05/31 03:38:28;;;;;;;;;6.25;4.50;;;;;;;;5088353;28;46844;-81
2022/05/31 03:40:56;;;;;;;;;5.75;5.00;;;;;;;;5078057;28;47006;-81
2022/05/31 03:43:21;;;;;;;;;6.50;5.50;;;;;;;;5073409;28;46941;-81
2022/05/31 03:45:46;;;;;;;;;5.50;5.50;;;;;;;;5066874;28;46904;-80
2022/05/31 03:48:12;;;;;;;;;6.50;5.00;;;;;;;;5095080;28;29253;-80
2022/05/31 03:50:38;;;;;;;;;5.50;5.50;;;;;;;;5076700;28;29600;-80
2022/05/31 03:53:04;;;;;;;;;6.00;5.50;;;;;;;;5093890;28;42209;-80
2022/05/31 03:55:30;;;;;;;;;5.50;5.50;;;;;;;;5094677;28;45251;-80
2022/05/31 03:57:55;;;;;;;;;6.50;5.25;;;;;;;;5076734;28;29473;-80
2022/05/31 04:00:21;;;;;;;;;5.25;5.25;;;;;;;;5094535;28;29583;-80
2022/05/31 04:02:46;;;;;;;;;9.00;7.00;;;;;;;;5093702;27;29706;-80
2022/05/31 04:05:12;;;;;;;;;5.25;4.50;;;;;;;;5075955;28;44760;-80
2022/05/31 04:07:37;;;;;;;;;6.75;6.75;;;;;;;;5094115;27;45554;-80
2022/05/31 04:10:03;;;;;;;;;6.00;6.00;;;;;;;;5089967;28;46754;-80
2022/05/31 04:12:30;;;;;;;;;7.00;6.00;;;;;;;;5090063;28;46845;-80
2022/05/31 04:14:55;;;;;;;;;8.50;7.00;;;;;;;;5092824;28;42844;-80
2022/05/31 04:17:21;;;;;;;;;6.00;6.00;;;;;;;;5085821;27;47262;-80
2022/05/31 04:19:46;;;;;;;;;5.25;5.25;;;;;;;;5091491;28;46286;-80
2022/05/31 04:22:11;;;;;;;;;7.75;6.75;;;;;;;;5094178;27;29547;-81
2022/05/31 04:24:37;;;;;;;;;8.00;7.50;;;;;;;;5094103;27;46859;-81
2022/05/31 04:27:02;;;;;;;;;7.00;7.00;;;;;;;;5094138;27;38391;-81
2022/05/31 04:29:27;;;;;;;;;7.75;6.75;;;;;;;;5089862;28;46245;-80
2022/05/31 04:31:53;;;;;;;;;7.00;6.25;;;;;;;;5086644;27;29487;-81
2022/05/31 04:34:18;;;;;;;;;6.50;6.50;;;;;;;;5094812;27;29414;-81
2022/05/31 04:36:43;;;;;;;;;7.25;6.00;;;;;;;;5078021;28;46841;-81
2022/05/31 04:39:09;;;;;;;;;6.50;6.25;;;;;;;;5095330;27;46143;-81
2022/05/31 04:41:34;;;;;;;;;6.00;5.50;;;;;;;;5092315;27;46919;-81
2022/05/31 04:44:00;;;;;;;;;6.00;6.00;;;;;;;;5095921;27;44602;-81
2022/05/31 04:46:27;;;;;;;;;7.00;7.00;;;;;;;;5091225;27;46891;-81
2022/05/31 04:48:53;;;;;;;;;5.25;5.00;;;;;;;;5062736;28;47186;-81
2022/05/31 04:51:18;;;;;;;;;5.75;5.75;;;;;;;;5079524;28;29694;-81
2022/05/31 04:53:44;;;;;;;;;9.00;7.00;;;;;;;;5098029;27;29387;-81
2022/05/31 04:56:11;;;;;;;;;6.00;6.00;;;;;;;;5075269;28;46528;-81
2022/05/31 04:58:37;;;;;;;;;8.75;7.50;;;;;;;;5079291;28;31093;-81
2022/05/31 05:01:06;;;;;;;;;7.50;7.50;;;;;;;;5097447;27;29495;-81
2022/05/31 05:03:31;;;;;;;;;9.00;7.00;;;;;;;;5097851;27;46215;-81
2022/05/31 05:06:00;;;;;;;;;7.75;7.50;;;;;;;;5078417;28;30407;-81
2022/05/31 05:08:26;;;;;;;;;6.75;5.75;;;;;;;;5080152;27;29587;-81
2022/05/31 05:10:51;;;;;;;;;10.00;8.75;;;;;;;;5088449;28;29350;-81
2022/05/31 05:13:17;;;;;;;;;8.25;7.00;;;;;;;;5095412;27;46409;-81
2022/05/31 05:15:42;;;;;;;;;9.00;7.00;;;;;;;;5069343;28;47060;-84
2022/05/31 05:18:07;;;;;;;;;6.00;5.75;;;;;;;;5067111;28;48769;-84
2022/05/31 05:20:34;;;;;;;;;9.00;7.25;;;;;;;;5095368;27;45119;-83
2022/05/31 05:23:00;;;;;;;;;9.00;7.50;;;;;;;;5095641;27;29463;-83
2022/05/31 05:25:25;;;;;;;;;9.50;8.00;;;;;;;;5077996;27;47019;-83
2022/05/31 05:27:50;;;;;;;;;7.25;6.75;;;;;;;;5096813;27;47099;-80
2022/05/31 05:33:00;;;;;;;;;10.50;8.00;;;;;;;;5083828;27;47073;-79
2022/05/31 05:35:25;;;;;;;;;8.00;6.25;;;;;;;;5097144;27;29376;-82
2022/05/31 05:37:50;;;;;;;;;6.50;6.00;;;;;;;;5078590;28;30540;-82
2022/05/31 05:40:16;;;;;;;;;7.25;5.00;;;;;;;;5096895;27;29399;-82
2022/05/31 05:42:41;;;;;;;;;6.50;6.50;;;;;;;;5096148;28;29449;-80
2022/05/31 05:45:07;;;;;;;;;7.00;6.00;;;;;;;;5095970;27;29828;-82
2022/05/31 05:47:32;;;;;;;;;6.00;5.75;;;;;;;;5096998;27;29529;-82
2022/05/31 05:49:58;;;;;;;;;5.00;5.00;;;;;;;;5096487;27;29487;-82
2022/05/31 05:52:23;;;;;;;;;6.25;5.00;;;;;;;;5078297;28;29471;-82
2022/05/31 05:54:49;;;;;;;;;7.75;6.75;;;;;;;;5096998;27;29755;-83
2022/05/31 05:57:14;;;;;;;;;7.00;7.00;;;;;;;;5108193;27;30324;-83
2022/05/31 05:59:39;;;;;;;;;7.25;6.25;;;;;;;;5098478;27;29453;-82
2022/05/31 06:02:10;;;;;;;;;10.25;8.75;;;;;;;;5100630;27;29482;-82
2022/05/31 06:04:40;;;;;;;;;7.75;7.00;;;;;;;;5096192;27;29416;-81
2022/05/31 06:07:15;;;;;;;;;10.00;8.00;;;;;;;;5080916;27;46852;-81
2022/05/31 06:09:41;;;;;;;;;7.00;7.00;;;;;;;;5085453;27;47443;-78
2022/05/31 06:12:09;;;;;;;;;7.25;6.00;;;;;;;;5129002;27;8774;-74
2022/05/31 06:14:34;;;;;;;;;7.00;7.00;;;;;;;;5100313;27;8871;-78
2022/05/31 06:17:04;;;;;;;;;9.25;8.75;;;;;;;;5129830;27;8809;-77
2022/05/31 06:19:34;;;;;;;;;10.50;8.25;;;;;;;;5099178;28;8797;-80
2022/05/31 06:21:59;;;;;;;;;10.50;9.25;;;;;;;;5117645;27;8796;-80
2022/05/31 06:24:27;;;;;;;;;9.00;9.00;;;;;;;;5117482;27;8881;-80
2022/05/31 06:26:52;;;;;;;;;11.50;8.00;;;;;;;;5099233;28;8781;-79
2022/05/31 06:29:18;;;;;;;;;10.00;9.75;;;;;;;;5117347;27;8836;-80
2022/05/31 06:31:43;;;;;;;;;6.75;6.75;;;;;;;;5117282;27;8804;-80
2022/05/31 06:34:09;;;;;;;;;7.00;6.50;;;;;;;;5117470;27;8901;-79
2022/05/31 06:36:34;;;;;;;;;7.25;6.75;;;;;;;;5117477;27;8822;-80
2022/05/31 06:39:00;;;;;;;;;7.75;6.50;;;;;;;;5103290;27;9775;-79
2022/05/31 06:41:25;;;;;;;;;11.00;6.75;;;;;;;;5115930;28;8886;-79
2022/05/31 06:43:50;;;;;;;;;9.00;9.00;;;;;;;;5117259;27;8866;-79
2022/05/31 06:46:15;;;;;;;;;9.00;7.75;;;;;;;;5117160;27;8796;-79
2022/05/31 06:48:41;;;;;;;;;7.50;6.25;;;;;;;;5117178;27;8962;-80
2022/05/31 06:51:08;;;;;;;;;7.25;6.25;;;;;;;;5117129;27;8841;-80
2022/05/31 06:59:01;;;;;;;;;8.75;7.00;;;;;;;;5111572;28;8765;-80
2022/05/31 07:01:37;;;;;;;;;6.25;5.25;;;;;;;;5116690;27;8878;-80
2022/05/31 07:04:02;;;;;;;;;5.00;5.00;;;;;;;;5112279;27;8797;-80
2022/05/31 07:06:28;;;;;;;;;7.00;7.00;;;;;;;;5116900;27;8866;-80
2022/05/31 07:08:53;;;;;;;;;7.00;7.00;;;;;;;;5086491;27;47039;-80
2022/05/31 07:11:19;;;;;;;;;9.00;6.00;;;;;;;;5086698;27;46790;-80
2022/05/31 07:13:44;;;;;;;;;8.25;6.00;;;;;;;;5079376;27;46820;-80
2022/05/31 07:16:10;;;;;;;;;10.00;7.50;;;;;;;;5071026;28;48697;-80
2022/05/31 07:18:35;;;;;;;;;8.50;7.75;;;;;;;;5082814;27;47137;-80
2022/05/31 07:21:01;;;;;;;;;6.25;6.25;;;;;;;;5094867;28;46258;-80
2022/05/31 07:23:26;;;;;;;;;7.25;7.25;;;;;;;;5093059;27;44520;-80
2022/05/31 07:25:52;;;;;;;;;8.00;8.00;;;;;;;;5079172;27;47875;-80
2022/05/31 07:28:18;;;;;;;;;6.00;5.75;;;;;;;;5088808;27;47004;-80
2022/05/31 07:30:43;;;;;;;;;8.25;8.25;;;;;;;;5095324;28;29340;-80
2022/05/31 07:33:09;;;;;;;;;7.00;6.75;;;;;;;;5095530;28;29489;-80
2022/05/31 07:35:34;;;;;;;;;7.25;5.25;;;;;;;;5077038;28;30409;-80
2022/05/31 07:37:59;;;;;;;;;6.25;5.75;;;;;;;;5095157;27;29360;-80
2022/05/31 07:40:24;;;;;;;;;9.75;9.00;;;;;;;;5095388;28;29621;-79
2022/05/31 07:42:50;;;;;;;;;8.50;6.25;;;;;;;;5095547;28;29628;-79
2022/05/31 07:45:15;;;;;;;;;5.00;4.00;;;;;;;;5076807;28;30700;-79
2022/05/31 07:47:41;;;;;;;;;5.50;5.50;;;;;;;;5094505;27;44470;-79
2022/05/31 07:50:06;;;;;;;;;7.25;6.25;;;;;;;;5093005;28;46198;-79
2022/05/31 07:52:33;;;;;;;;;8.00;7.00;;;;;;;;5093229;28;46812;-79
2022/05/31 07:54:58;;;;;;;;;8.00;7.00;;;;;;;;5094060;28;46345;-79
2022/05/31 08:00:08;;;;;;;;;9.00;5.00;;;;;;;;5094945;27;29347;-79
2022/05/31 08:02:33;;;;;;;;;10.50;7.75;;;;;;;;5090485;28;29230;-79
2022/05/31 08:05:00;;;;;;;;;9.25;7.50;;;;;;;;5110795;27;29686;-79
2022/05/31 08:07:25;;;;;;;;;8.00;8.00;;;;;;;;5086919;28;46962;-80
2022/05/31 08:09:50;;;;;;;;;7.75;7.75;;;;;;;;5094736;28;29387;-80
2022/05/31 08:12:15;;;;;;;;;6.25;6.25;;;;;;;;5065441;28;46994;-80
2022/05/31 08:14:41;;;;;;;;;13.00;10.00;;;;;;;;5078148;28;46964;-80
2022/05/31 08:17:06;;;;;;;;;8.50;8.50;;;;;;;;5063613;28;47509;-80
2022/05/31 08:19:32;;;;;;;;;8.00;8.00;;;;;;;;5079287;28;46947;-80
2022/05/31 08:21:57;;;;;;;;;14.00;10.50;;;;;;;;5092005;28;46375;-80
2022/05/31 08:24:24;;;;;;;;;8.25;8.00;;;;;;;;5094979;28;29396;-80
2022/05/31 08:26:49;;;;;;;;;10.00;9.00;;;;;;;;5080317;28;29652;-80
2022/05/31 08:29:16;;;;;;;;;8.75;8.75;;;;;;;;5087750;27;46841;-80
2022/05/31 08:31:41;;;;;;;;;8.25;7.75;;;;;;;;5080776;28;46834;-80
2022/05/31 08:34:07;;;;;;;;;9.50;9.50;;;;;;;;5087247;28;46897;-78
2022/05/31 08:36:33;;;;;;;;;9.50;9.50;;;;;;;;5090505;28;46802;-78
2022/05/31 08:38:58;;;;;;;;;8.50;8.50;;;;;;;;5093938;28;32176;-78
2022/05/31 08:41:27;;;;;;;;;9.50;7.75;;;;;;;;5076229;27;29435;-77
2022/05/31 08:43:52;;;;;;;;;9.00;8.50;;;;;;;;5075918;28;31058;-78
2022/05/31 08:46:41;;;;;;;;;7.75;6.75;;;;;;;;5094230;28;29435;-78
2022/05/31 08:49:13;;;;;;;;;10.75;8.00;;;;;;;;5093411;28;45444;-77
2022/05/31 08:51:55;;;;;;;;;6.75;6.00;;;;;;;;5094299;28;29489;-77
2022/05/31 08:57:30;;;;;;;;;7.00;6.50;;;;;;;;5094227;28;29364;-77
2022/05/31 08:59:59;;;;;;;;;7.75;6.25;;;;;;;;5093727;28;29274;-78
2022/05/31 09:02:29;;;;;;;;;8.50;7.50;;;;;;;;5071325;28;29617;-78
2022/05/31 09:05:14;;;;;;;;;9.25;7.50;;;;;;;;5084750;27;31319;-77
2022/05/31 09:07:46;;;;;;;;;7.00;7.00;;;;;;;;5052051;28;46944;-77
2022/05/31 09:10:19;;;;;;;;;9.75;6.75;;;;;;;;5077597;28;47024;-80
2022/05/31 09:12:56;;;;;;;;;3.00;3.00;;;;;;;;5078026;27;46856;-80
2022/05/31 09:15:27;;;;;;;;;6.75;6.75;;;;;;;;5070105;28;46954;-80
2022/05/31 09:17:52;;;;;;;;;6.75;6.25;;;;;;;;5066001;28;46916;-80
2022/05/31 09:20:23;;;;;;;;;8.75;7.50;;;;;;;;5087517;28;47043;-80
2022/05/31 09:22:49;;;;;;;;;6.25;5.25;;;;;;;;5097794;27;29477;-80
2022/05/31 09:25:14;;;;;;;;;7.25;7.25;;;;;;;;5071421;28;46924;-80
2022/05/31 09:27:47;;;;;;;;;5.50;5.50;;;;;;;;5085187;27;46990;-80
2022/05/31 09:30:17;;;;;;;;;9.25;7.00;;;;;;;;5081726;27;46959;-80
2022/05/31 09:32:47;;;;;;;;;5.25;5.25;;;;;;;;5082821;27;46821;-80
2022/05/31 09:35:23;;;;;;;;;8.00;8.00;;;;;;;;5085062;27;46880;-78
2022/05/31 09:38:10;;;;;;;;;7.50;6.75;;;;;;;;5082306;28;47166;-78
2022/05/31 09:40:52;;;;;;;;;4.50;4.25;;;;;;;;5080996;27;46761;-77
2022/05/31 09:43:26;;;;;;;;;5.00;5.00;;;;;;;;5093617;27;46500;-77
2022/05/31 09:46:04;;;;;;;;;5.25;5.25;;;;;;;;5078509;28;30929;-77
2022/05/31 09:48:29;;;;;;;;;7.00;6.00;;;;;;;;5094206;28;46256;-77
2022/05/31 09:51:01;;;;;;;;;9.50;8.25;;;;;;;;5096852;27;29719;-77
2022/05/31 09:59:09;;;;;;;;;4.00;4.00;;;;;;;;5096665;27;29594;-77
2022/05/31 10:01:45;;;;;;;;;6.50;6.50;;;;;;;;5096782;27;29489;-77
2022/05/31 10:04:13;;;;;;;;;5.50;5.25;;;;;;;;5074048;28;29388;-78
2022/05/31 10:07:01;;;;;;;;;5.50;4.00;;;;;;;;5077030;28;38373;-77
2022/05/31 10:09:34;;;;;;;;;5.00;5.00;;;;;;;;5076484;28;47036;-77
2022/05/31 10:12:13;;;;;;;;;7.50;4.75;;;;;;;;5078344;28;29472;-77
2022/05/31 10:14:46;;;;;;;;;5.25;5.00;;;;;;;;5096837;28;29343;-77
2022/05/31 10:17:27;;;;;;;;;6.00;4.00;;;;;;;;5096780;28;29485;-77
2022/05/31 10:20:05;;;;;;;;;4.00;4.00;;;;;;;;5093501;28;46971;-78
2022/05/31 10:22:30;;;;;;;;;5.00;4.75;;;;;;;;5092080;28;46307;-77
2022/05/31 10:24:56;;;;;;;;;5.00;4.00;;;;;;;;5070966;28;46959;-77
2022/05/31 10:27:23;;;;;;;;;4.75;4.75;;;;;;;;5089566;28;47876;-78
2022/05/31 10:29:49;;;;;;;;;4.00;4.00;;;;;;;;5077686;28;29691;-78
2022/05/31 10:32:33;;;;;;;;;4.00;2.00;;;;;;;;5082534;28;29549;-77
2022/05/31 10:35:16;;;;;;;;;3.50;3.00;;;;;;;;5083897;28;29531;-77
2022/05/31 10:38:03;;;;;;;;;4.25;3.50;;;;;;;;5076313;28;46880;-77
2022/05/31 10:40:29;;;;;;;;;4.00;4.00;;;;;;;;5087286;28;46203;-77
2022/05/31 10:42:57;;;;;;;;;4.00;3.00;;;;;;;;5094514;27;46376;-77
2022/05/31 10:45:26;;;;;;;;;3.00;3.00;;;;;;;;5096049;27;29330;-77
2022/05/31 10:47:55;;;;;;;;;3.50;3.25;;;;;;;;5096362;28;29416;-77
2022/05/31 10:50:21;;;;;;;;;5.00;3.50;;;;;;;;5095719;27;29527;-78
2022/05/31 10:52:55;;;;;;;;;7.50;5.00;;;;;;;;5077744;28;29470;-78
2022/05/31 10:55:53;;;;;;;;;4.25;4.25;;;;;;;;5096170;27;29324;-77
2022/05/31 10:58:18;;;;;;;;;4.00;3.50;;;;;;;;5033376;27;29529;-77
2022/05/31 11:00:55;;;;;;;;;4.00;3.00;;;;;;;;5087889;28;30298;-78
2022/05/31 11:03:42;;;;;;;;;5.75;4.00;;;;;;;;5090829;27;29486;-77
2022/05/31 11:06:13;;;;;;;;;3.00;3.00;;;;;;;;5084921;28;29340;-78
2022/05/31 11:11:35;;;;;;;;;4.00;4.00;;;;;;;;5095944;27;29411;-80
2022/05/31 11:14:07;;;;;;;;;3.00;3.00;;;;;;;;5095890;27;29351;-80
2022/05/31 11:16:39;;;;;;;;;3.75;3.75;;;;;;;;5077564;28;29335;-80
2022/05/31 11:19:10;;;;;;;;;5.00;3.25;;;;;;;;5087686;28;29519;-80
2022/05/31 11:21:45;;;;;;;;;5.25;4.25;;;;;;;;5083932;27;46958;-78
2022/05/31 11:24:13;;;;;;;;;3.00;3.00;;;;;;;;5075784;28;45028;-77
2022/05/31 11:26:39;;;;;;;;;3.50;2.50;;;;;;;;5095578;27;29459;-77
2022/05/31 11:29:23;;;;;;;;;5.75;4.00;;;;;;;;5095516;28;29410;-77
2022/05/31 11:32:06;;;;;;;;;3.00;3.00;;;;;;;;5063705;28;29952;-78
2022/05/31 11:34:44;;;;;;;;;3.00;3.00;;;;;;;;5078271;27;29398;-77
2022/05/31 11:37:10;;;;;;;;;4.00;4.00;;;;;;;;5090612;28;38251;-78
2022/05/31 11:39:47;;;;;;;;;4.75;4.75;;;;;;;;5106136;27;29447;-77
2022/05/31 11:42:28;;;;;;;;;2.75;2.75;;;;;;;;5068273;28;47152;-77
2022/05/31 11:45:20;;;;;;;;;3.00;3.00;;;;;;;;5075597;28;44538;-77
2022/05/31 11:48:06;;;;;;;;;1.50;1.50;;;;;;;;5090670;28;29540;-81
2022/05/31 11:50:50;;;;;;;;;3.25;3.25;;;;;;;;5074612;28;31180;-78
2022/05/31 11:53:36;;;;;;;;;2.00;2.00;;;;;;;;5095173;28;29501;-78
2022/05/31 11:56:09;;;;;;;;;5.00;3.50;;;;;;;;5076838;28;29603;-77
2022/05/31 11:59:10;;;;;;;;;3.50;2.50;;;;;;;;5094793;28;29708;-77
2022/05/31 12:01:57;;;;;;;;;2.00;1.50;;;;;;;;5018058;28;30194;-77
2022/05/31 12:04:27;;;;;;;;;2.00;2.00;;;;;;;;5085673;28;41053;-77
2022/05/31 12:07:07;;;;;;;;;3.25;3.25;;;;;;;;5076404;28;29351;-77
2022/05/31 12:10:00;;;;;;;;;4.75;4.75;;;;;;;;5075815;28;29621;-78
2022/05/31 12:12:45;;;;;;;;;3.00;3.00;;;;;;;;5067402;28;46289;-78
2022/05/31 12:15:25;;;;;;;;;0.25;0.00;;;;;;;;5094532;28;29378;-77
2022/05/31 12:18:09;;;;;;;;;3.25;2.50;;;;;;;;5076466;28;29651;-78
2022/05/31 12:23:45;;;;;;;;;2.50;2.50;;;;;;;;5083748;28;30331;-78
2022/05/31 12:26:37;;;;;;;;;5.50;2.50;;;;;;;;5076330;28;29647;-77
2022/05/31 12:29:18;;;;;;;;;4.00;4.00;;;;;;;;5069178;28;29451;-77
2022/05/31 12:31:43;;;;;;;;;4.50;4.50;;;;;;;;5083156;28;29355;-77
2022/05/31 12:34:34;;;;;;;;;5.00;3.50;;;;;;;;5088920;27;29467;-77
2022/05/31 12:37:01;;;;;;;;;2.50;2.50;;;;;;;;5114930;27;29567;-77
2022/05/31 12:39:30;;;;;;;;;4.75;3.50;;;;;;;;5115182;27;29369;-77
2022/05/31 12:42:12;;;;;;;;;3.00;3.00;;;;;;;;5114859;27;29605;-78
2022/05/31 12:44:39;;;;;;;;;4.00;4.00;;;;;;;;5114664;27;29585;-78
2022/05/31 12:47:17;;;;;;;;;4.50;3.50;;;;;;;;5096427;27;29770;-77
2022/05/31 12:49:53;;;;;;;;;4.25;4.25;;;;;;;;5097018;27;29486;-78
2022/05/31 12:55:33;;;;;;;;;3.75;3.75;;;;;;;;5098052;28;30116;-77
2022/05/31 12:58:35;;;;;;;;;3.00;3.00;;;;;;;;5077729;28;29937;-78
2022/05/31 13:01:04;;;;;;;;;5.25;2.75;;;;;;;;5073933;28;29499;-78
2022/05/31 13:03:39;;;;;;;;;4.50;3.75;;;;;;;;5096044;28;29465;-77
2022/05/31 13:06:09;;;;;;;;;2.25;2.25;;;;;;;;5081575;28;31823;-77
2022/05/31 13:08:59;;;;;;;;;5.00;3.00;;;;;;;;5070030;28;29968;-78
2022/05/31 13:19:48;;;;;;;;;6.75;3.25;;;;;;;;5095031;28;45238;-77
2022/05/31 13:22:19;;;;;;;;;3.75;3.25;;;;;;;;5071641;28;46846;-78
2022/05/31 13:24:54;;;;;;;;;3.25;3.25;;;;;;;;5074511;28;47164;-78
2022/05/31 13:27:26;;;;;;;;;6.75;2.25;;;;;;;;5095962;28;46830;-78
2022/05/31 13:30:14;;;;;;;;;8.25;1.50;;;;;;;;5078475;28;47197;-77
2022/05/31 13:32:40;;;;;;;;;6.75;1.75;;;;;;;;5090698;28;32880;-77
2022/05/31 13:35:17;;;;;;;;;6.50;1.75;;;;;;;;5078802;28;32761;-77
2022/05/31 13:37:51;;;;;;;;;2.50;2.50;;;;;;;;5079070;28;32059;-77
2022/05/31 13:40:21;;;;;;;;;4.25;3.25;;;;;;;;5078788;28;29659;-77
2022/05/31 13:42:47;;;;;;;;;8.00;2.00;;;;;;;;5078895;28;29495;-77
2022/05/31 13:45:17;;;;;;;;;7.25;0.50;;;;;;;;5078610;28;29752;-77
2022/05/31 13:47:47;;;;;;;;;5.00;3.00;;;;;;;;5078539;28;29565;-77
2022/05/31 13:50:17;;;;;;;;;7.25;0.75;;;;;;;;5096773;28;29422;-77
2022/05/31 13:52:42;;;;;;;;;3.50;2.75;;;;;;;;5078759;28;29544;-77
2022/05/31 13:55:16;;;;;;;;;2.50;2.00;;;;;;;;5078773;28;29395;-78
2022/05/31 13:57:55;;;;;;;;;3.00;1.75;;;;;;;;5096965;28;29571;-78
2022/05/31 14:00:34;;;;;;;;;7.25;2.00;;;;;;;;5078442;28;29699;-79
2022/05/31 14:03:06;;;;;;;;;6.25;2.25;;;;;;;;5096484;28;29693;-78
2022/05/31 14:05:48;;;;;;;;;8.75;1.75;;;;;;;;5078533;28;29636;-77
2022/05/31 14:08:13;;;;;;;;;8.25;1.00;;;;;;;;5095557;28;43102;-78
2022/05/31 14:10:46;;;;;;;;;2.25;2.25;;;;;;;;5077897;28;29935;-78
2022/05/31 14:13:18;;;;;;;;;2.75;2.75;;;;;;;;5078240;28;37285;-78
2022/05/31 14:15:44;;;;;;;;;3.75;1.75;;;;;;;;5096708;28;29490;-78
2022/05/31 14:18:14;;;;;;;;;2.25;2.25;;;;;;;;5078271;28;30766;-79
2022/05/31 14:20:43;;;;;;;;;9.50;1.75;;;;;;;;5076529;28;45372;-78
2022/05/31 14:23:13;;;;;;;;;7.50;1.50;;;;;;;;5096494;28;29383;-78
2022/05/31 14:25:39;;;;;;;;;6.25;1.50;;;;;;;;5096191;28;46288;-78
2022/05/31 14:28:13;;;;;;;;;1.50;1.00;;;;;;;;5069466;28;47059;-77
2022/05/31 14:30:48;;;;;;;;;5.25;2.75;;;;;;;;5066992;28;47777;-78
2022/05/31 14:33:13;;;;;;;;;2.25;2.00;;;;;;;;5055855;28;47092;-78
2022/05/31 14:35:39;;;;;;;;;2.75;2.75;;;;;;;;5079849;28;46948;-77
2022/05/31 14:38:08;;;;;;;;;2.00;1.00;;;;;;;;5061272;28;47072;-77
2022/05/31 14:40:36;;;;;;;;;1.75;1.75;;;;;;;;5079694;28;47123;-78
2022/05/31 14:43:05;;;;;;;;;2.50;2.50;;;;;;;;5061414;28;47018;-78
2022/05/31 14:45:31;;;;;;;;;2.00;2.00;;;;;;;;5079562;28;47749;-78
2022/05/31 14:47:56;;;;;;;;;4.00;1.00;;;;;;;;5079696;28;46774;-78
2022/05/31 14:50:27;;;;;;;;;8.50;1.75;;;;;;;;5079174;28;47136;-77
2022/05/31 14:52:56;;;;;;;;;1.25;1.25;;;;;;;;5079629;28;47004;-78
2022/05/31 14:55:21;;;;;;;;;0.00;0.00;;;;;;;;5079719;28;47099;-78
2022/05/31 15:00:40;;;;;;;;;1.00;1.00;;;;;;;;5079108;28;47285;-78
2022/05/31 15:03:23;;;;;;;;;7.00;0.25;;;;;;;;5060641;28;47009;-77
2022/05/31 15:05:55;;;;;;;;;3.00;3.00;;;;;;;;5061012;28;47017;-77
2022/05/31 15:08:27;;;;;;;;;2.00;1.25;;;;;;;;5060916;28;48753;-78
2022/05/31 15:10:53;;;;;;;;;1.50;1.50;;;;;;;;5079037;28;46785;-80
2022/05/31 15:21:14;;;;;;;;;4.00;3.25;;;;;;;;5078985;28;47108;-77
2022/05/31 15:23:40;;;;;;;;;2.00;2.00;;;;;;;;5079058;28;46829;-77
2022/05/31 15:26:06;;;;;;;;;3.00;3.00;;;;;;;;5060856;28;47038;-77
2022/05/31 15:28:32;;;;;;;;;4.50;3.00;;;;;;;;5078818;28;47088;-77
2022/05/31 15:30:58;;;;;;;;;7.00;0.00;;;;;;;;5060048;28;46981;-77
2022/05/31 15:33:23;;;;;;;;;7.75;1.00;;;;;;;;5072867;28;47023;-77
2022/05/31 15:35:48;;;;;;;;;6.75;1.00;;;;;;;;5078752;28;47029;-77
2022/05/31 15:38:19;;;;;;;;;2.75;2.75;;;;;;;;5060339;28;47309;-77
2022/05/31 15:40:45;;;;;;;;;2.00;2.00;;;;;;;;5060391;28;47840;-79
2022/05/31 15:43:10;;;;;;;;;1.75;1.75;;;;;;;;5078828;28;47121;-77
2022/05/31 15:45:36;;;;;;;;;5.75;2.00;;;;;;;;5060374;28;47198;-77